Time;durP1;ratioP1;P1;durP2;ratioP2;P2;SDS_P1;SDS_P2;PMS_P1;PMS_P2;Temp;Humidity;BMP_temperature;BMP_pressure;BME280_temperature;BME280_humidity;BME280_pressure;Samples;Min_cycle;Max_cycle;Signal;HPM_P1;HPM_P2
2021/01/10 00:00:20;;;;;;;27.73;14.77;;;;;;;1.27;70.28;99417.44;366930;109;1962005;-73
2021/01/10 00:01:25;;;;;;;23.36;14.08;;;;;;;1.21;70.53;99418.89;352089;109;1962983;-73
2021/01/10 00:02:32;;;;;;;23.79;13.91;;;;;;;1.20;70.57;99417.23;366680;109;1961946;-73
2021/01/10 00:03:38;;;;;;;26.81;15.25;;;;;;;1.20;70.55;99433.19;367117;109;1962016;-73
2021/01/10 00:04:44;;;;;;;21.76;13.21;;;;;;;1.31;70.36;99430.30;328224;108;2228042;-73
2021/01/10 00:05:50;;;;;;;23.30;14.07;;;;;;;1.40;69.96;99423.21;366219;109;1962066;-73
2021/01/10 00:06:57;;;;;;;22.78;14.08;;;;;;;1.39;70.08;99428.70;366894;109;1962028;-73
2021/01/10 00:08:04;;;;;;;22.63;14.02;;;;;;;1.49;70.03;99421.48;334097;109;2914923;-73
2021/01/10 00:09:09;;;;;;;21.87;12.19;;;;;;;1.56;69.53;99435.83;367776;108;1962034;-73
2021/01/10 00:10:17;;;;;;;23.20;14.68;;;;;;;1.58;69.51;99425.86;354832;114;1963989;-73
2021/01/10 00:11:22;;;;;;;24.33;15.03;;;;;;;1.62;69.46;99431.73;337720;112;1961982;-73
2021/01/10 00:12:28;;;;;;;25.46;15.47;;;;;;;1.67;69.28;99432.94;352335;114;1962001;-73
2021/01/10 00:13:33;;;;;;;24.34;14.78;;;;;;;1.64;69.33;99427.07;361440;112;1962022;-73
2021/01/10 00:14:41;;;;;;;26.47;15.16;;;;;;;1.59;69.14;99427.55;321636;116;2558905;-72
2021/01/10 00:15:47;;;;;;;25.01;15.40;;;;;;;1.56;69.07;99438.48;357120;112;1964938;-73
2021/01/10 00:16:53;;;;;;;25.61;16.97;;;;;;;1.50;69.20;99431.13;352605;114;1962025;-73
2021/01/10 00:17:59;;;;;;;27.87;16.39;;;;;;;1.38;69.69;99425.22;335770;114;2309042;-72
2021/01/10 00:19:06;;;;;;;26.16;15.95;;;;;;;1.34;69.68;99439.80;354806;112;1961937;-73
2021/01/10 00:20:13;;;;;;;23.96;16.20;;;;;;;1.30;70.01;99436.62;358268;110;1964017;-73
2021/01/10 00:21:19;;;;;;;26.62;15.51;;;;;;;1.22;70.27;99439.20;354033;112;1961878;-72
2021/01/10 00:22:24;;;;;;;25.15;15.03;;;;;;;1.15;70.60;99455.92;358858;112;1962022;-73
2021/01/10 00:23:30;;;;;;;24.36;14.67;;;;;;;1.15;70.33;99430.14;359419;110;1962073;-73
2021/01/10 00:24:36;;;;;;;25.66;14.84;;;;;;;1.18;70.51;99451.13;359461;112;1961979;-72
2021/01/10 00:25:42;;;;;;;22.85;13.17;;;;;;;1.25;70.38;99443.39;334049;112;2454940;-73
2021/01/10 00:26:47;;;;;;;20.98;12.79;;;;;;;1.34;70.17;99444.30;347850;112;1961956;-73
2021/01/10 00:27:53;;;;;;;23.14;13.64;;;;;;;1.42;70.06;99439.04;359461;112;1961868;-73
2021/01/10 00:28:58;;;;;;;23.07;13.36;;;;;;;1.49;69.89;99440.94;362614;112;1962028;-73
2021/01/10 00:30:13;;;;;;;23.79;13.87;;;;;;;1.56;69.39;99441.15;359674;112;1962872;-73
2021/01/10 00:31:19;;;;;;;25.32;13.64;;;;;;;1.59;69.23;99432.88;359477;112;1961956;-73
2021/01/10 00:32:25;;;;;;;26.82;15.72;;;;;;;1.63;69.23;99450.20;346582;112;2220918;-73
2021/01/10 00:33:30;;;;;;;24.97;14.98;;;;;;;1.62;69.04;99445.88;359728;112;1962107;-73
2021/01/10 00:34:35;;;;;;;25.87;14.99;;;;;;;1.60;69.11;99453.17;359477;112;1961997;-73
2021/01/10 00:35:40;;;;;;;22.90;14.64;;;;;;;1.50;68.98;99433.78;357871;112;1961901;-73
2021/01/10 00:36:46;;;;;;;25.14;15.70;;;;;;;1.49;68.97;99456.91;358449;112;1963000;-73
2021/01/10 00:37:54;;;;;;;26.03;15.23;;;;;;;1.47;69.09;99455.39;316476;112;2805019;-73
2021/01/10 00:39:03;;;;;;;26.43;15.14;;;;;;;1.42;69.22;99447.03;358578;112;1961012;-73
2021/01/10 00:40:09;;;;;;;28.42;15.86;;;;;;;1.36;69.39;99440.49;360193;110;1961992;-73
2021/01/10 00:41:16;;;;;;;25.77;17.14;;;;;;;1.35;69.31;99446.81;358939;110;1963070;-73
2021/01/10 00:42:21;;;;;;;28.07;18.16;;;;;;;1.25;69.92;99443.39;335135;112;1961972;-72
2021/01/10 00:43:26;;;;;;;25.99;16.16;;;;;;;1.17;70.00;99462.77;358100;111;1961987;-73
2021/01/10 00:44:32;;;;;;;29.18;17.61;;;;;;;1.09;70.45;99441.41;362095;110;1963918;-73
2021/01/10 00:45:38;;;;;;;27.50;16.51;;;;;;;1.09;70.63;99438.74;360733;111;1961967;-73
2021/01/10 00:46:45;;;;;;;25.18;15.33;;;;;;;1.06;70.73;99439.88;357517;112;1962059;-73
2021/01/10 00:47:53;;;;;;;23.47;13.38;;;;;;;1.03;71.03;99434.00;359449;112;1962038;-73
2021/01/10 00:49:00;;;;;;;23.90;15.00;;;;;;;1.08;71.07;99445.03;359067;112;1962045;-73
2021/01/10 00:50:08;;;;;;;24.11;14.79;;;;;;;1.16;70.86;99439.78;358404;110;1961978;-73
2021/01/10 00:51:14;;;;;;;22.25;14.33;;;;;;;1.20;70.73;99441.17;359213;112;1962026;-72
2021/01/10 00:52:19;;;;;;;23.27;13.86;;;;;;;1.33;70.63;99439.97;358867;112;1961954;-72
2021/01/10 00:53:26;;;;;;;24.37;13.83;;;;;;;1.38;70.28;99438.52;360213;112;1964022;-72
2021/01/10 00:54:32;;;;;;;22.46;12.82;;;;;;;1.42;70.04;99437.21;340860;112;2293100;-72
2021/01/10 00:55:39;;;;;;;22.78;13.24;;;;;;;1.51;69.98;99451.45;358791;112;1964972;-72
2021/01/10 00:56:46;;;;;;;25.84;14.15;;;;;;;1.58;69.75;99439.17;327141;112;2600967;-73
2021/01/10 00:57:52;;;;;;;23.93;14.58;;;;;;;1.66;69.52;99455.22;359394;112;1962023;-73
2021/01/10 00:58:59;;;;;;;25.48;15.31;;;;;;;1.72;69.10;99438.64;354937;114;1961997;-72
2021/01/10 01:00:08;;;;;;;23.88;14.64;;;;;;;1.70;69.17;99443.28;312259;112;2142937;-72
2021/01/10 01:01:16;;;;;;;27.52;16.29;;;;;;;1.66;68.95;99457.05;358937;112;1961997;-72
2021/01/10 01:02:21;;;;;;;26.60;15.67;;;;;;;1.46;69.56;99446.58;359747;112;1965010;-72
2021/01/10 01:03:27;;;;;;;25.61;16.01;;;;;;;1.44;69.60;99445.05;358408;110;1961947;-72
2021/01/10 01:04:33;;;;;;;25.07;15.71;;;;;;;1.38;69.55;99448.34;337471;112;2398962;-72
2021/01/10 01:05:41;;;;;;;26.91;15.58;;;;;;;1.37;69.55;99438.66;359231;112;1962945;-72
2021/01/10 01:06:50;;;;;;;30.69;17.93;;;;;;;1.29;69.69;99448.23;358969;112;1962027;-73
2021/01/10 01:07:56;;;;;;;27.18;16.69;;;;;;;1.23;70.09;99453.34;341672;112;2889082;-73
2021/01/10 01:09:07;;;;;;;29.72;17.10;;;;;;;1.22;70.07;99439.20;335555;112;1961952;-72
2021/01/10 01:10:13;;;;;;;23.78;15.22;;;;;;;1.20;70.10;99440.34;360455;112;1964027;-73
2021/01/10 01:11:30;;;;;;;23.88;14.48;;;;;;;1.17;70.35;99440.65;354869;112;1961986;-72
2021/01/10 01:12:35;;;;;;;24.29;14.57;;;;;;;1.13;70.91;99444.58;304059;110;2231803;-72
2021/01/10 01:13:41;;;;;;;24.94;15.43;;;;;;;1.20;70.83;99435.02;359555;112;1963028;-73
2021/01/10 01:14:47;;;;;;;23.53;14.41;;;;;;;1.17;70.76;99432.67;358990;112;1961971;-74
2021/01/10 01:15:53;;;;;;;23.62;14.38;;;;;;;1.36;70.59;99442.32;359096;112;1965004;-72
2021/01/10 01:16:59;;;;;;;22.35;13.72;;;;;;;1.43;70.44;99451.34;339148;112;2319949;-73
2021/01/10 01:18:05;;;;;;;25.22;14.38;;;;;;;1.49;70.21;99445.44;352758;110;1964956;-72
2021/01/10 01:19:10;;;;;;;24.31;14.71;;;;;;;1.58;69.83;99447.16;352925;112;1962010;-73
2021/01/10 01:20:18;;;;;;;24.91;14.90;;;;;;;1.64;69.95;99437.72;308997;112;2863967;-72
2021/01/10 01:21:24;;;;;;;26.18;15.63;;;;;;;1.72;69.56;99443.11;335316;113;1961986;-73
2021/01/10 01:22:30;;;;;;;25.22;15.51;;;;;;;1.68;69.39;99441.77;352477;113;1961955;-73
2021/01/10 01:23:37;;;;;;;26.36;15.74;;;;;;;1.72;69.10;99443.11;353412;113;1961985;-72
2021/01/10 01:24:42;;;;;;;27.07;16.12;;;;;;;1.67;69.25;99440.10;334543;113;1961976;-73
2021/01/10 01:25:49;;;;;;;25.81;17.00;;;;;;;1.59;69.26;99440.87;356529;113;1961915;-72
2021/01/10 01:26:55;;;;;;;27.31;17.02;;;;;;;1.52;69.35;99434.48;321428;113;2945057;-72
2021/01/10 01:28:00;;;;;;;29.13;17.07;;;;;;;1.52;69.26;99447.78;330876;113;1961967;-73
2021/01/10 01:29:07;;;;;;;29.17;17.34;;;;;;;1.41;69.69;99446.20;347244;114;1962961;-72
2021/01/10 01:30:14;;;;;;;28.01;17.69;;;;;;;1.37;69.80;99441.32;356447;112;1964945;-72
2021/01/10 01:31:21;;;;;;;30.24;17.73;;;;;;;1.28;70.35;99449.23;319483;112;2034357;-72
2021/01/10 01:32:27;;;;;;;26.65;16.53;;;;;;;1.23;70.49;99440.03;355643;112;1961973;-73
2021/01/10 01:33:33;;;;;;;26.19;16.08;;;;;;;1.22;70.40;99444.53;308980;112;2841011;-72
2021/01/10 01:34:40;;;;;;;24.21;14.98;;;;;;;1.19;70.76;99444.83;355652;112;1962006;-72
2021/01/10 01:35:45;;;;;;;25.28;15.09;;;;;;;1.20;71.01;99441.17;353825;112;1962046;-72
2021/01/10 01:36:51;;;;;;;25.82;15.89;;;;;;;1.21;70.91;99440.17;357676;112;1960873;-73
2021/01/10 01:37:57;;;;;;;24.36;14.64;;;;;;;1.24;70.83;99434.55;324225;112;2568994;-73
2021/01/10 01:39:03;;;;;;;25.28;16.04;;;;;;;1.36;70.52;99442.32;349040;113;1961979;-72
2021/01/10 01:40:09;;;;;;;26.93;15.39;;;;;;;1.43;70.22;99435.38;347501;114;1961937;-72
2021/01/10 01:41:15;;;;;;;20.97;13.83;;;;;;;1.51;69.99;99436.30;346277;114;1964094;-72
2021/01/10 01:42:21;;;;;;;23.67;15.70;;;;;;;1.57;69.71;99440.17;311138;114;2720958;-72
2021/01/10 01:43:26;;;;;;;25.47;15.99;;;;;;;1.62;69.51;99435.23;333531;112;1962922;-73
2021/01/10 01:44:31;;;;;;;28.94;15.27;;;;;;;1.65;69.48;99440.24;354762;112;1961919;-72
2021/01/10 01:45:37;;;;;;;25.55;16.32;;;;;;;1.60;69.29;99437.20;354863;112;1962962;-71
2021/01/10 01:46:44;;;;;;;27.70;17.12;;;;;;;1.56;69.37;99440.31;346214;112;2887930;-73
2021/01/10 01:47:49;;;;;;;28.69;16.89;;;;;;;1.48;69.52;99439.28;335215;112;1961991;-72
2021/01/10 01:48:57;;;;;;;30.48;17.60;;;;;;;1.47;69.45;99436.76;354904;112;1962042;-72
2021/01/10 01:50:04;;;;;;;30.11;18.31;;;;;;;1.41;69.45;99442.70;331734;112;2455940;-72
2021/01/10 01:51:09;;;;;;;28.62;17.23;;;;;;;1.29;70.16;99437.59;354740;112;1962013;-72
2021/01/10 01:52:15;;;;;;;29.06;17.96;;;;;;;1.27;70.15;99446.70;355015;112;1962017;-72
2021/01/10 01:53:21;;;;;;;26.71;15.49;;;;;;;1.17;70.70;99444.14;318572;112;2682985;-72
2021/01/10 01:54:27;;;;;;;24.36;15.16;;;;;;;1.22;70.46;99443.70;325680;112;1961970;-72
2021/01/10 01:55:33;;;;;;;24.73;15.52;;;;;;;1.22;70.46;99435.72;354537;112;1961950;-73
2021/01/10 01:56:41;;;;;;;25.91;15.71;;;;;;;1.17;70.86;99436.16;348188;112;1960986;-72
2021/01/10 01:57:46;;;;;;;26.12;13.18;;;;;;;1.25;70.76;99452.20;356011;112;1962083;-71
2021/01/10 01:59:03;;;;;;;26.14;14.48;;;;;;;1.38;70.23;99443.02;355346;112;1962073;-72
2021/01/10 02:00:11;;;;;;;25.02;14.19;;;;;;;1.40;70.17;99447.16;316180;112;2707974;-72
2021/01/10 02:01:19;;;;;;;21.06;14.34;;;;;;;1.39;70.19;99450.00;321572;112;2236983;-72
2021/01/10 02:02:25;;;;;;;24.19;14.63;;;;;;;1.55;70.06;99442.15;351854;112;1961848;-72
2021/01/10 02:03:36;;;;;;;25.91;15.38;;;;;;;1.55;69.73;99450.13;349660;114;1961014;-72
2021/01/10 02:04:52;;;;;;;25.07;15.17;;;;;;;1.61;69.39;99449.51;351191;114;1961057;-72
2021/01/10 02:06:01;;;;;;;29.62;17.21;;;;;;;1.67;69.39;99459.56;322434;112;2612942;-72
2021/01/10 02:07:41;;;;;;;25.27;15.84;;;;;;;1.69;69.13;99446.08;355550;112;1961945;-72
2021/01/10 02:08:50;;;;;;;27.34;15.80;;;;;;;1.68;69.08;99463.89;346141;112;2874973;-72
2021/01/10 02:10:00;;;;;;;26.47;16.06;;;;;;;1.55;69.28;99450.13;308519;112;2859956;-72
2021/01/10 02:11:08;;;;;;;31.77;17.28;;;;;;;1.49;69.37;99458.74;312929;112;2773950;-72
2021/01/10 02:12:17;;;;;;;31.63;17.67;;;;;;;1.42;69.68;99445.19;354571;112;1961953;-72
2021/01/10 02:13:23;;;;;;;30.57;19.02;;;;;;;1.37;69.79;99444.81;353386;112;1961985;-72
2021/01/10 02:14:31;;;;;;;32.01;17.62;;;;;;;1.33;70.36;99451.45;314010;112;2942031;-72
2021/01/10 02:15:40;;;;;;;28.15;16.52;;;;;;;1.23;70.86;99448.84;354487;112;1962017;-71
2021/01/10 02:16:48;;;;;;;28.17;15.52;;;;;;;1.21;70.51;99448.16;348168;114;1962023;-72
2021/01/10 02:17:56;;;;;;;28.66;16.27;;;;;;;1.21;70.70;99445.49;347722;112;1963994;-72
2021/01/10 02:19:06;;;;;;;27.20;15.74;;;;;;;1.24;70.86;99450.50;353901;112;1962956;-72
2021/01/10 02:20:16;;;;;;;22.66;14.38;;;;;;;1.30;70.91;99451.75;336724;112;2319966;-72
2021/01/10 02:21:24;;;;;;;26.01;16.47;;;;;;;1.37;70.76;99458.12;354909;112;1969919;-72
2021/01/10 02:22:33;;;;;;;26.37;15.03;;;;;;;1.42;70.61;99458.50;358753;112;1961971;-72
2021/01/10 02:23:40;;;;;;;23.17;14.08;;;;;;;1.50;70.57;99447.09;353706;112;1962477;-72
2021/01/10 02:24:48;;;;;;;28.23;15.81;;;;;;;1.63;70.09;99458.19;355630;112;1961986;-72
2021/01/10 02:25:55;;;;;;;25.15;15.31;;;;;;;1.64;69.93;99464.34;353040;112;1963034;-72
2021/01/10 02:27:04;;;;;;;26.52;15.22;;;;;;;1.68;69.66;99465.72;354769;112;1961930;-72
2021/01/10 02:28:10;;;;;;;26.46;16.77;;;;;;;1.80;69.35;99459.17;353979;112;1961935;-71
2021/01/10 02:29:17;;;;;;;26.43;15.24;;;;;;;1.81;69.20;99457.34;356059;112;1962019;-72
2021/01/10 02:30:26;;;;;;;27.86;17.84;;;;;;;1.72;69.42;99454.62;320597;112;2623976;-72
2021/01/10 02:31:35;;;;;;;29.91;18.61;;;;;;;1.70;69.52;99456.59;354491;112;1961941;-72
2021/01/10 02:32:44;;;;;;;31.05;19.08;;;;;;;1.62;69.67;99456.53;353611;112;1962991;-73
2021/01/10 02:33:58;;;;;;;30.58;19.48;;;;;;;1.53;69.92;99468.94;353412;112;1961953;-72
2021/01/10 02:35:06;;;;;;;30.55;17.96;;;;;;;1.44;70.19;99445.89;320581;112;2007779;-72
2021/01/10 02:36:25;;;;;;;31.60;20.06;;;;;;;1.42;70.20;99452.34;308069;112;2151442;-72
2021/01/10 02:37:55;;;;;;;27.89;16.46;;;;;;;1.31;70.61;99450.75;355962;112;1962005;-72
2021/01/10 02:39:07;;;;;;;27.07;16.36;;;;;;;1.21;71.17;99458.80;353686;112;1962915;-70
2021/01/10 02:40:23;;;;;;;26.03;15.81;;;;;;;1.29;71.03;99460.70;356516;112;1963040;-72
2021/01/10 02:41:38;;;;;;;25.49;14.91;;;;;;;1.29;71.19;99450.89;354924;112;1961923;-72
2021/01/10 02:42:59;;;;;;;28.18;15.94;;;;;;;1.36;71.04;99464.44;355646;112;1964016;-71
2021/01/10 02:44:24;;;;;;;28.82;15.63;;;;;;;1.49;70.62;99456.08;317594;112;2642978;-72
2021/01/10 02:45:32;;;;;;;25.49;14.96;;;;;;;1.58;70.44;99452.48;316499;112;2715044;-71
2021/01/10 02:46:43;;;;;;;25.09;14.56;;;;;;;1.58;70.33;99459.64;349921;112;1961992;-73
2021/01/10 02:47:49;;;;;;;26.81;15.89;;;;;;;1.66;70.13;99465.86;314832;112;2904954;-73
2021/01/10 02:48:55;;;;;;;23.49;14.06;;;;;;;1.69;69.98;99457.59;320512;112;1961970;-72
2021/01/10 02:50:01;;;;;;;24.83;16.20;;;;;;;1.79;69.68;99459.31;355848;112;1962017;-72
2021/01/10 02:51:07;;;;;;;27.02;15.83;;;;;;;1.80;69.50;99453.84;355797;112;1961889;-72
2021/01/10 02:52:12;;;;;;;29.13;18.03;;;;;;;1.80;69.62;99445.86;356112;112;1962063;-73
2021/01/10 02:53:18;;;;;;;26.51;17.65;;;;;;;1.82;69.64;99443.85;316487;113;2235983;-71
2021/01/10 02:54:23;;;;;;;31.17;18.99;;;;;;;1.78;69.60;99447.83;335652;112;1961927;-72
2021/01/10 02:55:28;;;;;;;33.67;18.50;;;;;;;1.72;69.70;99451.95;356692;112;1963938;-73
2021/01/10 02:56:39;;;;;;;30.60;18.59;;;;;;;1.66;69.82;99449.89;356281;112;1964055;-72
2021/01/10 02:57:51;;;;;;;30.81;18.93;;;;;;;1.49;70.41;99470.22;356180;112;1962012;-72
2021/01/10 02:58:56;;;;;;;33.42;18.01;;;;;;;1.46;70.44;99451.90;337622;112;1962034;-74
2021/01/10 03:00:06;;;;;;;31.91;18.12;;;;;;;1.43;70.53;99449.55;355097;112;1966291;-73
2021/01/10 03:01:15;;;;;;;31.72;17.32;;;;;;;1.39;70.51;99436.69;354908;112;1961956;-72
2021/01/10 03:02:21;;;;;;;26.28;16.69;;;;;;;1.41;70.66;99454.18;336382;114;1963011;-72
2021/01/10 03:03:29;;;;;;;27.61;15.97;;;;;;;1.45;70.68;99458.19;356531;112;1962002;-73
2021/01/10 03:04:35;;;;;;;29.44;16.18;;;;;;;1.50;70.80;99457.74;346905;112;1963863;-72
2021/01/10 03:05:41;;;;;;;29.19;17.04;;;;;;;1.52;70.74;99450.45;353158;112;1963964;-72
2021/01/10 03:06:53;;;;;;;27.91;16.57;;;;;;;1.58;70.77;99454.32;323450;112;2917017;-73
2021/01/10 03:07:59;;;;;;;28.86;15.87;;;;;;;1.63;70.71;99449.38;354456;112;1962026;-73
2021/01/10 03:09:05;;;;;;;24.73;15.55;;;;;;;1.69;70.17;99448.74;353760;114;1963980;-72
2021/01/10 03:10:12;;;;;;;27.38;17.06;;;;;;;1.66;70.22;99452.55;353492;112;1961923;-72
2021/01/10 03:11:18;;;;;;;24.95;15.46;;;;;;;1.75;70.20;99448.15;308231;112;2228997;-72
2021/01/10 03:12:26;;;;;;;28.66;16.27;;;;;;;1.83;70.17;99456.20;359032;112;1961995;-72
2021/01/10 03:13:33;;;;;;;27.19;16.31;;;;;;;1.87;69.74;99446.89;352662;112;1963263;-70
2021/01/10 03:14:44;;;;;;;26.52;16.50;;;;;;;1.86;69.94;99450.55;356335;114;1963039;-72
2021/01/10 03:15:51;;;;;;;26.38;17.14;;;;;;;1.92;69.45;99452.59;355944;112;1961986;-71
2021/01/10 03:16:57;;;;;;;28.72;18.73;;;;;;;1.89;69.67;99446.75;356387;112;1962026;-72
2021/01/10 03:18:19;;;;;;;30.34;17.23;;;;;;;1.92;69.43;99451.76;355453;112;1962011;-72
2021/01/10 03:19:37;;;;;;;30.93;21.04;;;;;;;1.85;69.36;99453.36;345769;114;1962025;-72
2021/01/10 03:20:45;;;;;;;29.27;18.01;;;;;;;1.78;69.62;99452.33;302627;115;2852007;-71
2021/01/10 03:21:51;;;;;;;34.97;21.13;;;;;;;1.69;69.80;99459.39;347324;115;1962000;-72
2021/01/10 03:22:56;;;;;;;34.28;19.38;;;;;;;1.54;70.43;99451.97;346099;114;1962947;-72
2021/01/10 03:24:02;;;;;;;33.02;18.57;;;;;;;1.57;69.82;99449.99;346590;114;1961924;-72
2021/01/10 03:25:09;;;;;;;30.51;18.74;;;;;;;1.47;70.40;99452.73;329942;114;2360021;-72
2021/01/10 03:26:16;;;;;;;28.85;17.95;;;;;;;1.37;71.25;99449.30;345567;115;1963917;-73
2021/01/10 03:27:22;;;;;;;32.73;17.98;;;;;;;1.33;71.30;99451.45;304815;115;2751900;-72
2021/01/10 03:28:28;;;;;;;26.54;16.16;;;;;;;1.39;71.06;99450.00;348433;115;1962924;-72
2021/01/10 03:29:33;;;;;;;27.39;17.09;;;;;;;1.41;71.14;99464.00;345620;115;1962054;-72
2021/01/10 03:30:42;;;;;;;24.39;16.19;;;;;;;1.44;71.13;99453.04;305261;115;2082437;-72
2021/01/10 03:31:47;;;;;;;26.34;16.54;;;;;;;1.44;71.19;99453.04;346273;115;1961972;-72
2021/01/10 03:32:52;;;;;;;28.01;16.24;;;;;;;1.52;70.92;99450.45;345610;115;1963976;-72
2021/01/10 03:33:58;;;;;;;25.55;16.05;;;;;;;1.59;70.72;99458.64;345437;115;1961964;-72
2021/01/10 03:35:05;;;;;;;29.46;17.17;;;;;;;1.66;70.65;99452.55;347080;115;1962032;-72
2021/01/10 03:36:15;;;;;;;25.88;16.29;;;;;;;1.71;70.60;99454.76;346377;115;1961947;-72
2021/01/10 03:37:20;;;;;;;28.67;16.85;;;;;;;1.71;70.45;99452.09;291649;115;2233907;-72
2021/01/10 03:38:25;;;;;;;25.08;15.00;;;;;;;1.71;70.27;99457.42;334013;116;1961953;-72
2021/01/10 03:39:31;;;;;;;25.12;15.92;;;;;;;1.84;70.00;99452.53;346255;115;1962088;-73
2021/01/10 03:40:37;;;;;;;27.08;15.48;;;;;;;1.85;69.66;99469.34;345593;115;1961944;-72
2021/01/10 03:41:43;;;;;;;25.58;16.85;;;;;;;1.85;69.83;99446.20;345810;115;1962001;-73
2021/01/10 03:42:48;;;;;;;27.49;16.67;;;;;;;1.86;69.65;99463.05;327682;115;2216040;-73
2021/01/10 03:43:54;;;;;;;27.83;17.18;;;;;;;1.90;69.63;99453.73;346186;115;1964187;-73
2021/01/10 03:44:59;;;;;;;29.69;17.72;;;;;;;1.90;69.53;99448.41;345981;115;1961997;-72
2021/01/10 03:46:05;;;;;;;28.24;17.19;;;;;;;1.85;69.64;99456.02;347822;114;1962046;-72
2021/01/10 03:47:10;;;;;;;30.58;18.31;;;;;;;1.77;69.89;99451.47;348607;114;1964970;-72
2021/01/10 03:48:17;;;;;;;31.82;18.76;;;;;;;1.70;69.82;99445.94;304648;114;2181396;-73
2021/01/10 03:49:22;;;;;;;31.06;19.71;;;;;;;1.61;70.21;99449.51;346413;114;1963063;-73
2021/01/10 03:50:28;;;;;;;28.88;17.97;;;;;;;1.56;70.25;99456.29;348384;114;1961954;-73
2021/01/10 03:51:34;;;;;;;27.73;16.88;;;;;;;1.51;70.51;99448.79;348675;114;1962865;-72
2021/01/10 03:52:40;;;;;;;28.21;17.22;;;;;;;1.49;70.73;99445.44;322779;114;2494918;-72
2021/01/10 03:53:45;;;;;;;26.03;15.94;;;;;;;1.51;70.65;99456.77;322068;114;1961951;-72
2021/01/10 03:54:50;;;;;;;25.55;15.67;;;;;;;1.49;70.94;99467.56;347748;114;1964034;-72
2021/01/10 03:55:56;;;;;;;26.15;15.82;;;;;;;1.54;70.68;99451.97;348617;114;1962000;-72
2021/01/10 03:57:01;;;;;;;26.56;15.77;;;;;;;1.61;70.49;99460.16;350497;114;1961933;-72
2021/01/10 03:58:06;;;;;;;25.99;15.26;;;;;;;1.63;70.58;99452.86;350679;114;1961909;-72
2021/01/10 03:59:12;;;;;;;27.09;15.63;;;;;;;1.63;70.56;99462.69;349721;114;1962014;-73
2021/01/10 04:00:18;;;;;;;25.29;14.83;;;;;;;1.76;70.08;99461.29;290654;114;2240541;-72
2021/01/10 04:01:24;;;;;;;27.06;15.41;;;;;;;1.79;69.87;99459.31;334562;114;1961940;-70
2021/01/10 04:02:29;;;;;;;27.54;16.26;;;;;;;1.89;69.67;99460.06;346743;115;1961919;-73
2021/01/10 04:03:35;;;;;;;27.83;17.25;;;;;;;1.92;69.41;99460.58;348974;114;1961980;-72
2021/01/10 04:04:41;;;;;;;31.51;18.13;;;;;;;1.95;69.41;99460.27;347736;114;1961847;-72
2021/01/10 04:05:50;;;;;;;28.31;18.11;;;;;;;1.88;69.40;99461.90;318134;116;2583922;-71
2021/01/10 04:06:56;;;;;;;30.42;17.44;;;;;;;1.88;69.29;99459.23;333759;116;2287029;-72
2021/01/10 04:08:01;;;;;;;30.94;17.77;;;;;;;1.76;69.58;99465.78;326438;114;1961922;-73
2021/01/10 04:09:06;;;;;;;32.31;19.21;;;;;;;1.70;69.62;99466.41;348335;114;1962980;-72
2021/01/10 04:10:13;;;;;;;30.13;18.51;;;;;;;1.65;69.80;99460.71;348719;114;1963016;-71
2021/01/10 04:11:21;;;;;;;30.37;18.27;;;;;;;1.57;70.02;99469.46;313866;114;2686025;-72
2021/01/10 04:12:26;;;;;;;30.78;17.79;;;;;;;1.48;70.21;99473.88;348743;114;1962043;-72
2021/01/10 04:13:31;;;;;;;27.46;17.29;;;;;;;1.41;70.81;99461.34;348381;114;1961939;-72
2021/01/10 04:14:37;;;;;;;25.84;15.75;;;;;;;1.39;70.92;99461.47;348258;114;1961968;-72
2021/01/10 04:15:43;;;;;;;29.15;15.70;;;;;;;1.40;71.06;99462.30;319853;114;2507977;-72
2021/01/10 04:16:51;;;;;;;25.09;15.66;;;;;;;1.46;70.81;99470.53;335288;114;1965030;-71
2021/01/10 04:17:56;;;;;;;28.08;16.21;;;;;;;1.54;70.65;99478.59;346964;115;1963040;-72
2021/01/10 04:19:02;;;;;;;28.64;16.40;;;;;;;1.56;70.62;99466.94;298368;117;2784944;-74
2021/01/10 04:20:09;;;;;;;25.41;14.78;;;;;;;1.68;70.42;99463.06;341200;117;1961958;-72
2021/01/10 04:21:14;;;;;;;25.75;14.91;;;;;;;1.74;70.36;99465.09;341074;117;1964853;-71
2021/01/10 04:22:21;;;;;;;23.02;14.14;;;;;;;1.79;70.08;99469.97;341198;117;1963032;-72
2021/01/10 04:23:28;;;;;;;27.49;15.88;;;;;;;1.84;69.75;99475.67;335818;117;1961950;-72
2021/01/10 04:24:33;;;;;;;26.85;15.83;;;;;;;1.83;69.59;99469.52;339505;117;1962027;-73
2021/01/10 04:25:41;;;;;;;25.33;15.30;;;;;;;1.93;69.42;99466.73;346421;114;1962021;-73
2021/01/10 04:26:49;;;;;;;28.72;15.98;;;;;;;1.89;69.36;99468.89;339468;117;1961936;-72
2021/01/10 04:27:55;;;;;;;26.98;16.29;;;;;;;1.83;69.63;99463.36;303533;115;2237004;-72
2021/01/10 04:29:00;;;;;;;28.81;16.93;;;;;;;1.84;69.53;99473.01;342847;114;1963925;-72
2021/01/10 04:30:07;;;;;;;31.33;18.28;;;;;;;1.76;69.62;99469.28;348247;114;1961907;-72
2021/01/10 04:31:12;;;;;;;28.78;17.01;;;;;;;1.68;69.77;99466.55;349065;114;1961980;-72
2021/01/10 04:32:18;;;;;;;28.06;16.53;;;;;;;1.60;70.12;99473.64;318751;114;2575901;-72
2021/01/10 04:33:23;;;;;;;29.47;16.89;;;;;;;1.46;70.74;99491.00;348225;114;1962015;-71
2021/01/10 04:34:29;;;;;;;27.27;17.19;;;;;;;1.48;70.45;99475.69;346863;114;1961899;-72
2021/01/10 04:35:34;;;;;;;23.71;14.21;;;;;;;1.40;71.00;99481.77;348432;114;1962919;-72
2021/01/10 04:36:42;;;;;;;28.18;15.19;;;;;;;1.35;71.36;99481.41;333080;114;1962966;-72
2021/01/10 04:37:50;;;;;;;24.76;14.84;;;;;;;1.43;71.07;99470.84;348171;114;1963898;-73
2021/01/10 04:38:57;;;;;;;25.53;14.59;;;;;;;1.49;70.99;99491.52;307688;114;2908971;-72
2021/01/10 04:40:03;;;;;;;27.07;15.51;;;;;;;1.60;70.69;99477.14;349060;115;1961969;-72
2021/01/10 04:41:10;;;;;;;25.40;12.96;;;;;;;1.63;70.65;99487.48;348647;114;1963932;-72
2021/01/10 04:42:17;;;;;;;23.66;14.01;;;;;;;1.68;70.54;99484.36;341009;114;1963814;-72
2021/01/10 04:43:22;;;;;;;26.18;14.79;;;;;;;1.73;70.49;99495.39;349748;115;1961909;-72
2021/01/10 04:44:29;;;;;;;24.38;14.05;;;;;;;1.80;70.17;99491.13;347840;114;1961947;-72
2021/01/10 04:45:36;;;;;;;26.33;15.61;;;;;;;1.88;69.95;99487.67;329389;114;2322987;-71
2021/01/10 04:46:44;;;;;;;24.61;15.87;;;;;;;1.85;69.88;99487.98;348199;116;1962030;-71
2021/01/10 04:47:50;;;;;;;26.42;14.90;;;;;;;1.89;69.93;99497.35;324659;114;1961948;-72
2021/01/10 04:48:56;;;;;;;27.17;16.65;;;;;;;1.89;69.91;99495.52;347740;114;1961869;-71
2021/01/10 04:50:03;;;;;;;27.31;16.59;;;;;;;1.87;69.81;99505.48;348348;114;1961937;-73
2021/01/10 04:51:12;;;;;;;27.75;16.07;;;;;;;1.80;69.99;99496.46;342830;114;1961976;-72
2021/01/10 04:52:19;;;;;;;28.89;17.51;;;;;;;1.75;69.92;99510.23;309978;114;2038397;-72
2021/01/10 04:53:27;;;;;;;28.80;16.41;;;;;;;1.67;70.22;99506.66;348399;114;1961989;-72
2021/01/10 04:54:36;;;;;;;28.43;16.19;;;;;;;1.63;70.19;99505.28;348659;114;1963981;-72
2021/01/10 04:55:44;;;;;;;28.46;16.76;;;;;;;1.54;70.47;99507.88;328992;115;2276947;-71
2021/01/10 04:56:53;;;;;;;28.78;15.38;;;;;;;1.47;71.08;99508.63;346305;114;1961954;-72
2021/01/10 04:58:05;;;;;;;29.99;16.68;;;;;;;1.50;71.05;99517.13;346200;115;1965046;-72
2021/01/10 04:59:10;;;;;;;;;;;;;;;1.49;71.30;99504.83;321490;115;1961064;-73
2021/01/10 05:00:19;;;;;;;26.33;14.13;;;;;;;1.56;71.37;99506.88;346055;115;1961027;-72
2021/01/10 05:01:26;;;;;;;28.18;14.52;;;;;;;1.65;70.96;99513.96;316466;117;2397958;-72
2021/01/10 05:02:32;;;;;;;25.02;14.04;;;;;;;1.71;70.85;99508.84;347531;114;1962011;-72
2021/01/10 05:03:40;;;;;;;24.79;14.00;;;;;;;1.69;70.74;99516.17;345948;114;1961838;-72
2021/01/10 05:04:46;;;;;;;24.21;14.36;;;;;;;1.77;70.86;99504.73;346206;114;1961969;-72
2021/01/10 05:05:51;;;;;;;25.19;14.27;;;;;;;1.77;70.87;99510.05;346682;114;1963998;-72